sensor_id;sensor_type;location;lat;lon;timestamp;temperature;humidity
41756;DHT22;27435;48.480;9.258;2023-07-22T00:00:49;12.20;99.00
41756;DHT22;27435;48.480;9.258;2023-07-22T00:03:15;12.20;99.00
41756;DHT22;27435;48.480;9.258;2023-07-22T00:05:41;12.20;99.00
41756;DHT22;27435;48.480;9.258;2023-07-22T00:08:07;12.20;99.00
41756;DHT22;27435;48.480;9.258;2023-07-22T00:10:33;12.30;99.00
41756;DHT22;27435;48.480;9.258;2023-07-22T00:12:58;12.40;99.00
41756;DHT22;27435;48.480;9.258;2023-07-22T00:15:24;12.50;99.00
41756;DHT22;27435;48.480;9.258;2023-07-22T00:17:51;12.60;99.00
41756;DHT22;27435;48.480;9.258;2023-07-22T00:20:17;12.80;99.00
41756;DHT22;27435;48.480;9.258;2023-07-22T00:22:43;12.70;99.00
41756;DHT22;27435;48.480;9.258;2023-07-22T00:25:10;12.70;99.00
41756;DHT22;27435;48.480;9.258;2023-07-22T00:27:41;12.60;99.00
41756;DHT22;27435;48.480;9.258;2023-07-22T00:30:07;12.50;99.00
41756;DHT22;27435;48.480;9.258;2023-07-22T00:32:33;12.40;99.00
41756;DHT22;27435;48.480;9.258;2023-07-22T00:34:59;12.40;99.00
41756;DHT22;27435;48.480;9.258;2023-07-22T00:37:25;12.40;99.00
41756;DHT22;27435;48.480;9.258;2023-07-22T00:39:51;12.30;99.00
41756;DHT22;27435;48.480;9.258;2023-07-22T00:42:16;12.30;99.00
41756;DHT22;27435;48.480;9.258;2023-07-22T00:44:42;12.20;99.00
41756;DHT22;27435;48.480;9.258;2023-07-22T00:47:08;12.10;99.00
41756;DHT22;27435;48.480;9.258;2023-07-22T00:49:35;12.10;99.00
41756;DHT22;27435;48.480;9.258;2023-07-22T00:52:02;12.10;99.00
41756;DHT22;27435;48.480;9.258;2023-07-22T00:54:29;12.20;99.00
41756;DHT22;27435;48.480;9.258;2023-07-22T00:56:56;12.20;99.00
41756;DHT22;27435;48.480;9.258;2023-07-22T00:59:22;12.10;99.00
41756;DHT22;27435;48.480;9.258;2023-07-22T01:01:48;12.00;99.00
41756;DHT22;27435;48.480;9.258;2023-07-22T01:04:15;12.10;99.00
41756;DHT22;27435;48.480;9.258;2023-07-22T01:06:43;12.10;99.00
41756;DHT22;27435;48.480;9.258;2023-07-22T01:09:09;12.00;99.00
41756;DHT22;27435;48.480;9.258;2023-07-22T01:11:35;11.90;99.00
41756;DHT22;27435;48.480;9.258;2023-07-22T01:14:01;11.90;99.00
41756;DHT22;27435;48.480;9.258;2023-07-22T01:16:27;11.90;99.00
41756;DHT22;27435;48.480;9.258;2023-07-22T01:18:54;11.90;99.00
41756;DHT22;27435;48.480;9.258;2023-07-22T01:21:22;12.00;99.00
41756;DHT22;27435;48.480;9.258;2023-07-22T01:23:48;12.00;99.00
41756;DHT22;27435;48.480;9.258;2023-07-22T01:26:14;12.10;99.00
41756;DHT22;27435;48.480;9.258;2023-07-22T01:28:39;12.10;99.00
41756;DHT22;27435;48.480;9.258;2023-07-22T01:31:05;12.00;99.00
41756;DHT22;27435;48.480;9.258;2023-07-22T01:33:31;11.90;99.00
41756;DHT22;27435;48.480;9.258;2023-07-22T01:35:57;11.80;99.00
41756;DHT22;27435;48.480;9.258;2023-07-22T01:38:23;11.90;99.00
41756;DHT22;27435;48.480;9.258;2023-07-22T01:40:48;11.80;99.00
41756;DHT22;27435;48.480;9.258;2023-07-22T01:43:14;11.70;99.00
41756;DHT22;27435;48.480;9.258;2023-07-22T01:45:40;11.80;99.00
41756;DHT22;27435;48.480;9.258;2023-07-22T01:48:05;11.60;99.00
41756;DHT22;27435;48.480;9.258;2023-07-22T01:50:32;11.50;99.00
41756;DHT22;27435;48.480;9.258;2023-07-22T01:52:57;11.60;99.00
41756;DHT22;27435;48.480;9.258;2023-07-22T01:55:23;11.50;99.00
41756;DHT22;27435;48.480;9.258;2023-07-22T01:57:48;11.50;99.00
41756;DHT22;27435;48.480;9.258;2023-07-22T02:00:14;11.50;99.00
41756;DHT22;27435;48.480;9.258;2023-07-22T02:02:41;11.40;99.00
41756;DHT22;27435;48.480;9.258;2023-07-22T02:05:08;11.40;99.00
41756;DHT22;27435;48.480;9.258;2023-07-22T02:07:35;11.30;99.00
41756;DHT22;27435;48.480;9.258;2023-07-22T02:10:01;11.40;99.00
41756;DHT22;27435;48.480;9.258;2023-07-22T02:12:26;11.40;99.00
41756;DHT22;27435;48.480;9.258;2023-07-22T02:14:52;11.50;99.00
41756;DHT22;27435;48.480;9.258;2023-07-22T02:17:17;11.40;99.00
41756;DHT22;27435;48.480;9.258;2023-07-22T02:19:43;11.30;99.00
41756;DHT22;27435;48.480;9.258;2023-07-22T02:22:09;11.50;99.00
41756;DHT22;27435;48.480;9.258;2023-07-22T02:24:34;11.40;99.00
41756;DHT22;27435;48.480;9.258;2023-07-22T02:27:00;11.30;99.00
41756;DHT22;27435;48.480;9.258;2023-07-22T02:29:26;11.20;99.00
41756;DHT22;27435;48.480;9.258;2023-07-22T02:31:52;11.20;99.00
41756;DHT22;27435;48.480;9.258;2023-07-22T02:34:17;11.20;99.00
41756;DHT22;27435;48.480;9.258;2023-07-22T02:36:43;11.30;99.00
41756;DHT22;27435;48.480;9.258;2023-07-22T02:39:08;11.50;99.00
41756;DHT22;27435;48.480;9.258;2023-07-22T02:41:37;11.50;99.00
41756;DHT22;27435;48.480;9.258;2023-07-22T02:44:02;11.40;99.00
41756;DHT22;27435;48.480;9.258;2023-07-22T02:46:31;11.30;99.00
41756;DHT22;27435;48.480;9.258;2023-07-22T02:48:57;11.30;99.00
41756;DHT22;27435;48.480;9.258;2023-07-22T02:51:24;11.20;99.00
41756;DHT22;27435;48.480;9.258;2023-07-22T02:53:49;11.10;99.00
41756;DHT22;27435;48.480;9.258;2023-07-22T02:56:15;11.10;99.00
41756;DHT22;27435;48.480;9.258;2023-07-22T02:58:41;11.20;99.00
41756;DHT22;27435;48.480;9.258;2023-07-22T03:01:07;11.40;99.00
41756;DHT22;27435;48.480;9.258;2023-07-22T03:03:34;11.20;99.00
41756;DHT22;27435;48.480;9.258;2023-07-22T03:06:03;11.30;99.00
41756;DHT22;27435;48.480;9.258;2023-07-22T03:08:29;11.10;99.00
41756;DHT22;27435;48.480;9.258;2023-07-22T03:10:55;11.20;99.00
41756;DHT22;27435;48.480;9.258;2023-07-22T03:13:21;11.10;99.00
41756;DHT22;27435;48.480;9.258;2023-07-22T03:15:47;11.10;99.00
41756;DHT22;27435;48.480;9.258;2023-07-22T03:18:12;11.00;99.00
41756;DHT22;27435;48.480;9.258;2023-07-22T03:20:39;11.10;99.00
41756;DHT22;27435;48.480;9.258;2023-07-22T03:23:05;11.10;99.00
41756;DHT22;27435;48.480;9.258;2023-07-22T03:25:31;11.10;99.00
41756;DHT22;27435;48.480;9.258;2023-07-22T03:27:59;11.20;99.00
41756;DHT22;27435;48.480;9.258;2023-07-22T03:30:27;11.20;99.00
41756;DHT22;27435;48.480;9.258;2023-07-22T03:33:01;11.20;99.00
41756;DHT22;27435;48.480;9.258;2023-07-22T03:35:36;11.10;99.00
41756;DHT22;27435;48.480;9.258;2023-07-22T03:38:08;11.00;99.00
41756;DHT22;27435;48.480;9.258;2023-07-22T03:40:38;11.00;99.00
41756;DHT22;27435;48.480;9.258;2023-07-22T03:43:07;11.00;99.00
41756;DHT22;27435;48.480;9.258;2023-07-22T03:45:32;10.80;99.00
41756;DHT22;27435;48.480;9.258;2023-07-22T03:48:01;10.80;99.00
41756;DHT22;27435;48.480;9.258;2023-07-22T03:50:30;10.80;99.00
41756;DHT22;27435;48.480;9.258;2023-07-22T03:52:55;10.90;99.00
41756;DHT22;27435;48.480;9.258;2023-07-22T03:55:29;10.90;99.00
41756;DHT22;27435;48.480;9.258;2023-07-22T03:58:03;10.90;99.00
41756;DHT22;27435;48.480;9.258;2023-07-22T04:00:28;11.20;99.00
41756;DHT22;27435;48.480;9.258;2023-07-22T04:03:04;11.00;99.00
41756;DHT22;27435;48.480;9.258;2023-07-22T04:05:38;11.10;99.00
41756;DHT22;27435;48.480;9.258;2023-07-22T04:08:15;11.10;99.00
41756;DHT22;27435;48.480;9.258;2023-07-22T04:11:00;11.20;99.00
41756;DHT22;27435;48.480;9.258;2023-07-22T04:13:32;11.20;99.00
41756;DHT22;27435;48.480;9.258;2023-07-22T04:16:21;11.20;99.00
41756;DHT22;27435;48.480;9.258;2023-07-22T04:18:46;11.10;99.00
41756;DHT22;27435;48.480;9.258;2023-07-22T04:21:21;11.20;99.00
41756;DHT22;27435;48.480;9.258;2023-07-22T04:23:52;11.20;99.00
41756;DHT22;27435;48.480;9.258;2023-07-22T04:26:42;11.30;99.00
41756;DHT22;27435;48.480;9.258;2023-07-22T04:29:16;11.40;99.00
41756;DHT22;27435;48.480;9.258;2023-07-22T04:31:45;11.30;99.00
41756;DHT22;27435;48.480;9.258;2023-07-22T04:34:11;11.40;99.00
41756;DHT22;27435;48.480;9.258;2023-07-22T04:36:40;11.40;99.00
41756;DHT22;27435;48.480;9.258;2023-07-22T04:39:11;11.50;99.00
41756;DHT22;27435;48.480;9.258;2023-07-22T04:41:42;11.70;99.00
41756;DHT22;27435;48.480;9.258;2023-07-22T04:44:13;11.60;99.00
41756;DHT22;27435;48.480;9.258;2023-07-22T04:46:44;11.60;99.00
41756;DHT22;27435;48.480;9.258;2023-07-22T04:49:16;11.50;99.00
41756;DHT22;27435;48.480;9.258;2023-07-22T04:51:46;11.60;99.00
41756;DHT22;27435;48.480;9.258;2023-07-22T04:54:14;11.60;99.00
41756;DHT22;27435;48.480;9.258;2023-07-22T04:56:58;11.80;99.00
41756;DHT22;27435;48.480;9.258;2023-07-22T04:59:29;12.00;99.00
41756;DHT22;27435;48.480;9.258;2023-07-22T05:02:06;11.90;99.00
41756;DHT22;27435;48.480;9.258;2023-07-22T05:04:34;12.00;99.00
41756;DHT22;27435;48.480;9.258;2023-07-22T05:07:00;12.00;99.00
41756;DHT22;27435;48.480;9.258;2023-07-22T05:09:30;12.00;99.00
41756;DHT22;27435;48.480;9.258;2023-07-22T05:11:58;12.20;99.00
41756;DHT22;27435;48.480;9.258;2023-07-22T05:14:24;12.30;99.00
41756;DHT22;27435;48.480;9.258;2023-07-22T05:16:56;12.50;99.00
41756;DHT22;27435;48.480;9.258;2023-07-22T05:19:22;12.60;99.00
41756;DHT22;27435;48.480;9.258;2023-07-22T05:21:50;12.70;99.00
41756;DHT22;27435;48.480;9.258;2023-07-22T05:24:19;12.70;99.00
41756;DHT22;27435;48.480;9.258;2023-07-22T05:26:49;12.80;99.00
41756;DHT22;27435;48.480;9.258;2023-07-22T05:29:15;13.00;99.00
41756;DHT22;27435;48.480;9.258;2023-07-22T05:31:48;13.20;99.00
41756;DHT22;27435;48.480;9.258;2023-07-22T05:34:14;13.30;99.00
41756;DHT22;27435;48.480;9.258;2023-07-22T05:36:40;13.60;99.00
41756;DHT22;27435;48.480;9.258;2023-07-22T05:39:06;13.80;99.00
41756;DHT22;27435;48.480;9.258;2023-07-22T05:41:35;14.00;99.00
41756;DHT22;27435;48.480;9.258;2023-07-22T05:44:01;14.30;99.00
41756;DHT22;27435;48.480;9.258;2023-07-22T05:46:36;14.30;99.00
41756;DHT22;27435;48.480;9.258;2023-07-22T05:49:09;14.30;99.00
41756;DHT22;27435;48.480;9.258;2023-07-22T05:51:38;14.40;99.00
41756;DHT22;27435;48.480;9.258;2023-07-22T05:54:06;14.60;99.00
41756;DHT22;27435;48.480;9.258;2023-07-22T05:56:34;15.60;99.00
41756;DHT22;27435;48.480;9.258;2023-07-22T05:59:03;16.60;99.00
41756;DHT22;27435;48.480;9.258;2023-07-22T06:01:36;17.70;92.00
41756;DHT22;27435;48.480;9.258;2023-07-22T06:04:10;18.70;88.10
41756;DHT22;27435;48.480;9.258;2023-07-22T06:06:47;19.40;85.90
41756;DHT22;27435;48.480;9.258;2023-07-22T06:09:16;20.00;83.60
41756;DHT22;27435;48.480;9.258;2023-07-22T06:11:42;20.30;80.80
41756;DHT22;27435;48.480;9.258;2023-07-22T06:14:12;20.70;78.40
41756;DHT22;27435;48.480;9.258;2023-07-22T06:16:54;20.40;80.10
41756;DHT22;27435;48.480;9.258;2023-07-22T06:19:30;21.00;78.60
41756;DHT22;27435;48.480;9.258;2023-07-22T06:22:04;21.60;76.00
41756;DHT22;27435;48.480;9.258;2023-07-22T06:24:37;22.00;75.00
41756;DHT22;27435;48.480;9.258;2023-07-22T06:27:03;22.50;73.40
41756;DHT22;27435;48.480;9.258;2023-07-22T06:29:36;22.70;73.20
41756;DHT22;27435;48.480;9.258;2023-07-22T06:32:05;23.40;71.00
41756;DHT22;27435;48.480;9.258;2023-07-22T06:34:41;23.60;70.30
41756;DHT22;27435;48.480;9.258;2023-07-22T06:37:07;23.10;70.50
41756;DHT22;27435;48.480;9.258;2023-07-22T06:39:33;23.00;70.40
41756;DHT22;27435;48.480;9.258;2023-07-22T06:42:04;23.50;69.90
41756;DHT22;27435;48.480;9.258;2023-07-22T06:44:38;24.10;68.50
41756;DHT22;27435;48.480;9.258;2023-07-22T06:47:08;24.20;66.60
41756;DHT22;27435;48.480;9.258;2023-07-22T06:49:44;24.60;65.70
41756;DHT22;27435;48.480;9.258;2023-07-22T06:52:20;24.90;66.10
41756;DHT22;27435;48.480;9.258;2023-07-22T06:54:48;25.50;63.10
41756;DHT22;27435;48.480;9.258;2023-07-22T06:57:24;25.70;61.00
41756;DHT22;27435;48.480;9.258;2023-07-22T06:59:54;25.30;60.10
41756;DHT22;27435;48.480;9.258;2023-07-22T07:02:25;25.10;61.20
41756;DHT22;27435;48.480;9.258;2023-07-22T07:04:53;25.00;59.40
41756;DHT22;27435;48.480;9.258;2023-07-22T07:07:25;24.60;60.80
41756;DHT22;27435;48.480;9.258;2023-07-22T07:09:56;25.00;59.90
41756;DHT22;27435;48.480;9.258;2023-07-22T07:12:27;25.30;60.10
41756;DHT22;27435;48.480;9.258;2023-07-22T07:15:01;25.40;60.30
41756;DHT22;27435;48.480;9.258;2023-07-22T07:17:32;25.10;60.30
41756;DHT22;27435;48.480;9.258;2023-07-22T07:20:07;24.40;61.10
41756;DHT22;27435;48.480;9.258;2023-07-22T07:22:41;23.80;62.90
41756;DHT22;27435;48.480;9.258;2023-07-22T07:25:12;22.60;65.90
41756;DHT22;27435;48.480;9.258;2023-07-22T07:27:37;22.10;67.30
41756;DHT22;27435;48.480;9.258;2023-07-22T07:30:07;21.90;67.70
41756;DHT22;27435;48.480;9.258;2023-07-22T07:32:33;21.60;68.00
41756;DHT22;27435;48.480;9.258;2023-07-22T07:34:59;21.10;68.10
41756;DHT22;27435;48.480;9.258;2023-07-22T07:37:33;21.00;69.60
41756;DHT22;27435;48.480;9.258;2023-07-22T07:40:04;21.10;70.10
41756;DHT22;27435;48.480;9.258;2023-07-22T07:42:43;21.20;69.40
41756;DHT22;27435;48.480;9.258;2023-07-22T07:45:11;21.00;68.60
41756;DHT22;27435;48.480;9.258;2023-07-22T07:47:39;20.90;68.90
41756;DHT22;27435;48.480;9.258;2023-07-22T07:50:11;20.90;69.70
41756;DHT22;27435;48.480;9.258;2023-07-22T07:52:42;20.90;69.90
41756;DHT22;27435;48.480;9.258;2023-07-22T07:55:08;20.90;70.50
41756;DHT22;27435;48.480;9.258;2023-07-22T07:57:33;20.90;70.00
41756;DHT22;27435;48.480;9.258;2023-07-22T07:59:59;21.20;69.20
41756;DHT22;27435;48.480;9.258;2023-07-22T08:02:24;21.10;66.70
41756;DHT22;27435;48.480;9.258;2023-07-22T08:04:50;21.00;66.00
41756;DHT22;27435;48.480;9.258;2023-07-22T08:07:16;21.00;65.60
41756;DHT22;27435;48.480;9.258;2023-07-22T08:09:42;20.90;65.40
41756;DHT22;27435;48.480;9.258;2023-07-22T08:12:08;21.20;66.50
41756;DHT22;27435;48.480;9.258;2023-07-22T08:14:34;21.40;66.00
41756;DHT22;27435;48.480;9.258;2023-07-22T08:16:59;21.40;66.40
41756;DHT22;27435;48.480;9.258;2023-07-22T08:19:25;21.50;64.80
41756;DHT22;27435;48.480;9.258;2023-07-22T08:21:51;21.60;65.40
41756;DHT22;27435;48.480;9.258;2023-07-22T08:24:16;21.60;64.90
41756;DHT22;27435;48.480;9.258;2023-07-22T08:26:42;21.40;65.20
41756;DHT22;27435;48.480;9.258;2023-07-22T08:29:07;21.30;65.40
41756;DHT22;27435;48.480;9.258;2023-07-22T08:31:33;21.20;65.90
41756;DHT22;27435;48.480;9.258;2023-07-22T08:33:58;21.40;64.90
41756;DHT22;27435;48.480;9.258;2023-07-22T08:36:24;21.60;65.00
41756;DHT22;27435;48.480;9.258;2023-07-22T08:38:50;21.80;65.60
41756;DHT22;27435;48.480;9.258;2023-07-22T08:41:15;21.90;65.20
41756;DHT22;27435;48.480;9.258;2023-07-22T08:43:45;22.10;63.70
41756;DHT22;27435;48.480;9.258;2023-07-22T08:46:13;22.20;61.60
41756;DHT22;27435;48.480;9.258;2023-07-22T08:48:41;22.20;61.80
41756;DHT22;27435;48.480;9.258;2023-07-22T08:51:15;22.40;61.80
41756;DHT22;27435;48.480;9.258;2023-07-22T08:53:43;22.50;62.10
41756;DHT22;27435;48.480;9.258;2023-07-22T08:56:10;22.70;60.70
41756;DHT22;27435;48.480;9.258;2023-07-22T08:58:36;22.80;58.60
41756;DHT22;27435;48.480;9.258;2023-07-22T09:01:03;23.10;58.70
41756;DHT22;27435;48.480;9.258;2023-07-22T09:03:29;23.10;59.50
41756;DHT22;27435;48.480;9.258;2023-07-22T09:05:55;23.00;59.60
41756;DHT22;27435;48.480;9.258;2023-07-22T09:08:21;22.90;60.10
41756;DHT22;27435;48.480;9.258;2023-07-22T09:10:48;23.10;59.80
41756;DHT22;27435;48.480;9.258;2023-07-22T09:13:14;23.00;58.80
41756;DHT22;27435;48.480;9.258;2023-07-22T09:15:40;23.10;58.10
41756;DHT22;27435;48.480;9.258;2023-07-22T09:18:06;23.40;58.50
41756;DHT22;27435;48.480;9.258;2023-07-22T09:20:33;23.50;55.90
41756;DHT22;27435;48.480;9.258;2023-07-22T09:23:00;23.10;57.60
41756;DHT22;27435;48.480;9.258;2023-07-22T09:25:27;22.90;58.10
41756;DHT22;27435;48.480;9.258;2023-07-22T09:27:55;22.80;58.40
41756;DHT22;27435;48.480;9.258;2023-07-22T09:30:32;23.00;58.00
41756;DHT22;27435;48.480;9.258;2023-07-22T09:33:00;23.30;55.90
41756;DHT22;27435;48.480;9.258;2023-07-22T09:35:31;23.60;55.20
41756;DHT22;27435;48.480;9.258;2023-07-22T09:37:58;23.50;55.80
41756;DHT22;27435;48.480;9.258;2023-07-22T09:40:26;23.40;56.20
41756;DHT22;27435;48.480;9.258;2023-07-22T09:42:57;23.60;56.00
41756;DHT22;27435;48.480;9.258;2023-07-22T09:45:27;23.70;56.80
41756;DHT22;27435;48.480;9.258;2023-07-22T09:47:54;23.70;56.30
41756;DHT22;27435;48.480;9.258;2023-07-22T09:50:24;23.50;56.10
41756;DHT22;27435;48.480;9.258;2023-07-22T09:55:19;23.70;56.80
41756;DHT22;27435;48.480;9.258;2023-07-22T09:57:59;23.80;56.70
41756;DHT22;27435;48.480;9.258;2023-07-22T10:00:33;23.80;56.20
41756;DHT22;27435;48.480;9.258;2023-07-22T10:03:00;23.70;56.20
41756;DHT22;27435;48.480;9.258;2023-07-22T10:05:27;23.70;55.50
41756;DHT22;27435;48.480;9.258;2023-07-22T10:07:58;24.20;55.80
41756;DHT22;27435;48.480;9.258;2023-07-22T10:10:32;24.20;54.80
41756;DHT22;27435;48.480;9.258;2023-07-22T10:12:58;24.20;54.70
41756;DHT22;27435;48.480;9.258;2023-07-22T10:15:29;24.20;54.10
41756;DHT22;27435;48.480;9.258;2023-07-22T10:17:56;24.40;54.50
41756;DHT22;27435;48.480;9.258;2023-07-22T10:20:23;24.30;54.80
41756;DHT22;27435;48.480;9.258;2023-07-22T10:22:50;24.10;55.30
41756;DHT22;27435;48.480;9.258;2023-07-22T10:25:18;23.80;56.60
41756;DHT22;27435;48.480;9.258;2023-07-22T10:27:45;23.90;56.80
41756;DHT22;27435;48.480;9.258;2023-07-22T10:30:13;24.10;56.50
41756;DHT22;27435;48.480;9.258;2023-07-22T10:32:50;24.20;56.40
41756;DHT22;27435;48.480;9.258;2023-07-22T10:37:47;24.00;56.90
41756;DHT22;27435;48.480;9.258;2023-07-22T10:43:02;24.30;57.00
41756;DHT22;27435;48.480;9.258;2023-07-22T10:45:39;24.60;56.30
41756;DHT22;27435;48.480;9.258;2023-07-22T10:48:10;24.90;55.40
41756;DHT22;27435;48.480;9.258;2023-07-22T10:50:45;25.00;55.30
41756;DHT22;27435;48.480;9.258;2023-07-22T10:56:13;24.90;55.90
41756;DHT22;27435;48.480;9.258;2023-07-22T11:04:11;25.10;54.00
41756;DHT22;27435;48.480;9.258;2023-07-22T11:06:39;24.80;54.60
41756;DHT22;27435;48.480;9.258;2023-07-22T11:12:04;25.00;53.50
41756;DHT22;27435;48.480;9.258;2023-07-22T11:14:50;25.40;52.70
41756;DHT22;27435;48.480;9.258;2023-07-22T11:17:17;25.70;53.10
41756;DHT22;27435;48.480;9.258;2023-07-22T11:19:46;25.80;53.00
41756;DHT22;27435;48.480;9.258;2023-07-22T11:22:11;26.00;51.40
41756;DHT22;27435;48.480;9.258;2023-07-22T11:24:41;26.00;52.00
41756;DHT22;27435;48.480;9.258;2023-07-22T11:27:10;26.00;50.80
41756;DHT22;27435;48.480;9.258;2023-07-22T11:29:38;25.70;51.60
41756;DHT22;27435;48.480;9.258;2023-07-22T11:32:07;25.40;52.40
41756;DHT22;27435;48.480;9.258;2023-07-22T11:34:40;25.30;52.80
41756;DHT22;27435;48.480;9.258;2023-07-22T11:37:12;25.20;52.80
41756;DHT22;27435;48.480;9.258;2023-07-22T11:39:46;25.30;52.60
41756;DHT22;27435;48.480;9.258;2023-07-22T11:42:22;25.30;52.50
41756;DHT22;27435;48.480;9.258;2023-07-22T11:44:51;25.50;52.30
41756;DHT22;27435;48.480;9.258;2023-07-22T11:47:17;25.50;51.80
41756;DHT22;27435;48.480;9.258;2023-07-22T11:49:48;25.40;52.20
41756;DHT22;27435;48.480;9.258;2023-07-22T11:52:17;25.60;52.50
41756;DHT22;27435;48.480;9.258;2023-07-22T11:54:52;25.90;51.90
41756;DHT22;27435;48.480;9.258;2023-07-22T11:59:51;25.80;51.20
41756;DHT22;27435;48.480;9.258;2023-07-22T12:02:23;26.10;50.30
41756;DHT22;27435;48.480;9.258;2023-07-22T12:05:00;26.40;50.40
41756;DHT22;27435;48.480;9.258;2023-07-22T12:07:30;26.60;49.30
41756;DHT22;27435;48.480;9.258;2023-07-22T12:10:02;26.90;48.60
41756;DHT22;27435;48.480;9.258;2023-07-22T12:12:39;26.90;48.20
41756;DHT22;27435;48.480;9.258;2023-07-22T12:15:15;26.60;48.00
41756;DHT22;27435;48.480;9.258;2023-07-22T12:18:02;26.60;48.70
41756;DHT22;27435;48.480;9.258;2023-07-22T12:20:45;26.60;49.10
41756;DHT22;27435;48.480;9.258;2023-07-22T12:23:21;26.40;49.70
41756;DHT22;27435;48.480;9.258;2023-07-22T12:25:48;26.30;49.30
41756;DHT22;27435;48.480;9.258;2023-07-22T12:28:17;26.60;48.30
41756;DHT22;27435;48.480;9.258;2023-07-22T12:30:45;27.00;48.60
41756;DHT22;27435;48.480;9.258;2023-07-22T12:33:26;27.30;47.40
41756;DHT22;27435;48.480;9.258;2023-07-22T12:35:55;27.10;47.70
41756;DHT22;27435;48.480;9.258;2023-07-22T12:38:26;27.00;47.50
41756;DHT22;27435;48.480;9.258;2023-07-22T12:40:52;27.30;47.30
41756;DHT22;27435;48.480;9.258;2023-07-22T12:43:20;27.70;47.00
41756;DHT22;27435;48.480;9.258;2023-07-22T12:45:49;27.00;46.80
41756;DHT22;27435;48.480;9.258;2023-07-22T12:48:25;26.80;47.40
41756;DHT22;27435;48.480;9.258;2023-07-22T12:50:53;26.80;48.30
41756;DHT22;27435;48.480;9.258;2023-07-22T12:53:37;26.90;47.80
41756;DHT22;27435;48.480;9.258;2023-07-22T12:56:03;27.10;46.80
41756;DHT22;27435;48.480;9.258;2023-07-22T12:58:30;27.10;47.10
41756;DHT22;27435;48.480;9.258;2023-07-22T13:01:01;26.90;47.80
41756;DHT22;27435;48.480;9.258;2023-07-22T13:03:27;26.50;48.70
41756;DHT22;27435;48.480;9.258;2023-07-22T13:06:03;26.20;49.10
41756;DHT22;27435;48.480;9.258;2023-07-22T13:08:33;26.00;49.60
41756;DHT22;27435;48.480;9.258;2023-07-22T13:11:01;25.90;50.20
41756;DHT22;27435;48.480;9.258;2023-07-22T13:13:32;26.30;49.70
41756;DHT22;27435;48.480;9.258;2023-07-22T13:16:01;26.70;48.40
41756;DHT22;27435;48.480;9.258;2023-07-22T13:18:29;27.00;47.90
41756;DHT22;27435;48.480;9.258;2023-07-22T13:20:55;26.70;48.10
41756;DHT22;27435;48.480;9.258;2023-07-22T13:23:23;26.30;49.00
41756;DHT22;27435;48.480;9.258;2023-07-22T13:25:52;26.50;48.70
41756;DHT22;27435;48.480;9.258;2023-07-22T13:28:18;27.00;47.90
41756;DHT22;27435;48.480;9.258;2023-07-22T13:30:44;26.60;48.90
41756;DHT22;27435;48.480;9.258;2023-07-22T13:33:12;27.20;47.40
41756;DHT22;27435;48.480;9.258;2023-07-22T13:35:38;28.10;46.20
41756;DHT22;27435;48.480;9.258;2023-07-22T13:38:06;28.50;45.80
41756;DHT22;27435;48.480;9.258;2023-07-22T13:40:35;29.40;44.60
41756;DHT22;27435;48.480;9.258;2023-07-22T13:43:03;30.10;43.70
41756;DHT22;27435;48.480;9.258;2023-07-22T13:45:29;30.20;43.40
41756;DHT22;27435;48.480;9.258;2023-07-22T13:48:01;28.70;44.80
41756;DHT22;27435;48.480;9.258;2023-07-22T13:50:26;27.50;46.50
41756;DHT22;27435;48.480;9.258;2023-07-22T13:53:04;27.00;47.90
41756;DHT22;27435;48.480;9.258;2023-07-22T13:55:34;27.30;47.30
41756;DHT22;27435;48.480;9.258;2023-07-22T13:58:01;27.20;47.20
41756;DHT22;27435;48.480;9.258;2023-07-22T14:00:28;27.00;48.10
41756;DHT22;27435;48.480;9.258;2023-07-22T14:02:58;27.70;47.10
41756;DHT22;27435;48.480;9.258;2023-07-22T14:05:24;28.70;46.30
41756;DHT22;27435;48.480;9.258;2023-07-22T14:07:53;29.20;44.90
41756;DHT22;27435;48.480;9.258;2023-07-22T14:10:19;29.40;44.20
41756;DHT22;27435;48.480;9.258;2023-07-22T14:12:44;28.60;45.60
41756;DHT22;27435;48.480;9.258;2023-07-22T14:15:10;27.90;47.20
41756;DHT22;27435;48.480;9.258;2023-07-22T14:17:36;27.70;46.80
41756;DHT22;27435;48.480;9.258;2023-07-22T14:20:07;28.20;46.80
41756;DHT22;27435;48.480;9.258;2023-07-22T14:22:37;28.20;46.30
41756;DHT22;27435;48.480;9.258;2023-07-22T14:25:05;28.50;45.80
41756;DHT22;27435;48.480;9.258;2023-07-22T14:27:39;29.00;45.70
41756;DHT22;27435;48.480;9.258;2023-07-22T14:30:06;29.20;44.20
41756;DHT22;27435;48.480;9.258;2023-07-22T14:32:32;28.60;44.80
41756;DHT22;27435;48.480;9.258;2023-07-22T14:34:58;27.70;45.30
41756;DHT22;27435;48.480;9.258;2023-07-22T14:37:24;27.20;46.30
41756;DHT22;27435;48.480;9.258;2023-07-22T14:39:49;27.00;47.20
41756;DHT22;27435;48.480;9.258;2023-07-22T14:42:23;26.80;47.80
41756;DHT22;27435;48.480;9.258;2023-07-22T14:44:51;27.10;47.50
41756;DHT22;27435;48.480;9.258;2023-07-22T14:47:19;27.80;46.00
41756;DHT22;27435;48.480;9.258;2023-07-22T14:49:56;28.80;44.30
41756;DHT22;27435;48.480;9.258;2023-07-22T14:52:21;29.00;43.50
41756;DHT22;27435;48.480;9.258;2023-07-22T14:54:48;29.40;43.50
41756;DHT22;27435;48.480;9.258;2023-07-22T14:57:17;29.60;43.20
41756;DHT22;27435;48.480;9.258;2023-07-22T14:59:42;29.60;41.70
41756;DHT22;27435;48.480;9.258;2023-07-22T15:02:08;29.10;42.60
41756;DHT22;27435;48.480;9.258;2023-07-22T15:04:39;28.90;43.50
41756;DHT22;27435;48.480;9.258;2023-07-22T15:07:13;27.60;45.10
41756;DHT22;27435;48.480;9.258;2023-07-22T15:10:15;26.70;46.40
41756;DHT22;27435;48.480;9.258;2023-07-22T15:12:46;27.40;45.20
41756;DHT22;27435;48.480;9.258;2023-07-22T15:15:15;27.70;45.10
41756;DHT22;27435;48.480;9.258;2023-07-22T15:17:48;27.90;44.80
41756;DHT22;27435;48.480;9.258;2023-07-22T15:20:19;28.20;44.00
41756;DHT22;27435;48.480;9.258;2023-07-22T15:22:50;27.40;44.60
41756;DHT22;27435;48.480;9.258;2023-07-22T15:25:28;27.30;45.40
41756;DHT22;27435;48.480;9.258;2023-07-22T15:28:07;27.60;44.40
41756;DHT22;27435;48.480;9.258;2023-07-22T15:30:38;27.90;44.50
41756;DHT22;27435;48.480;9.258;2023-07-22T15:33:09;28.40;43.40
41756;DHT22;27435;48.480;9.258;2023-07-22T15:35:37;28.50;44.00
41756;DHT22;27435;48.480;9.258;2023-07-22T15:38:14;27.80;44.50
41756;DHT22;27435;48.480;9.258;2023-07-22T15:40:42;26.90;46.40
41756;DHT22;27435;48.480;9.258;2023-07-22T15:43:11;26.30;47.60
41756;DHT22;27435;48.480;9.258;2023-07-22T15:45:42;26.00;47.80
41756;DHT22;27435;48.480;9.258;2023-07-22T15:48:15;26.20;48.00
41756;DHT22;27435;48.480;9.258;2023-07-22T15:50:48;26.60;47.20
41756;DHT22;27435;48.480;9.258;2023-07-22T15:53:19;26.80;46.20
41756;DHT22;27435;48.480;9.258;2023-07-22T15:55:47;26.70;46.60
41756;DHT22;27435;48.480;9.258;2023-07-22T15:58:14;26.60;47.10
41756;DHT22;27435;48.480;9.258;2023-07-22T16:00:45;26.30;47.80
41756;DHT22;27435;48.480;9.258;2023-07-22T16:03:11;26.40;47.30